Time;durP1;ratioP1;P1;durP2;ratioP2;P2;SDS_P1;SDS_P2;PMS_P1;PMS_P2;Temp;Humidity;BMP_temperature;BMP_pressure;BME280_temperature;BME280_humidity;BME280_pressure;Samples;Min_cycle;Max_cycle;Signal;HPM_P1;HPM_P2
2023/08/18 00:01:20;;;;;;;2.92;1.90;;;19.30;99.90;;;;;;5017278;28;20029;-73
2023/08/18 00:03:46;;;;;;;3.15;2.00;;;19.30;99.90;;;;;;5016593;28;20042;-73
2023/08/18 00:06:12;;;;;;;3.03;1.90;;;19.30;99.90;;;;;;5015667;28;20034;-73
2023/08/18 00:08:38;;;;;;;4.72;2.45;;;19.30;99.90;;;;;;5016544;28;20030;-74
2023/08/18 00:11:04;;;;;;;2.90;1.85;;;19.30;99.90;;;;;;5016793;28;20083;-74
2023/08/18 00:13:29;;;;;;;3.45;1.83;;;19.20;99.90;;;;;;5016467;28;20508;-74
2023/08/18 00:15:55;;;;;;;4.25;2.00;;;19.20;99.90;;;;;;5015399;28;20520;-74
2023/08/18 00:18:21;;;;;;;2.88;1.95;;;19.20;99.90;;;;;;5015304;28;20045;-74
2023/08/18 00:20:49;;;;;;;3.53;2.03;;;19.20;99.90;;;;;;5016721;28;20389;-75
2023/08/18 00:23:15;;;;;;;4.13;2.47;;;19.20;99.90;;;;;;5016598;28;20022;-73
2023/08/18 00:25:41;;;;;;;3.78;1.98;;;19.00;99.90;;;;;;5016473;28;20396;-74
2023/08/18 00:28:07;;;;;;;4.82;2.28;;;18.90;99.90;;;;;;5016413;28;20026;-74
2023/08/18 00:30:32;;;;;;;2.75;1.70;;;18.80;99.90;;;;;;5016560;28;20038;-74
2023/08/18 00:32:58;;;;;;;3.55;2.17;;;18.70;99.90;;;;;;5014892;28;20470;-74
2023/08/18 00:35:24;;;;;;;5.32;1.95;;;18.60;99.90;;;;;;5015675;28;20026;-74
2023/08/18 00:37:49;;;;;;;5.43;2.50;;;18.60;99.90;;;;;;5017180;28;20113;-74
2023/08/18 00:40:16;;;;;;;3.00;2.10;;;18.60;99.90;;;;;;5016228;28;20030;-74
2023/08/18 00:42:42;;;;;;;3.97;1.95;;;18.60;99.90;;;;;;5017296;28;20033;-74
2023/08/18 00:45:08;;;;;;;4.25;1.98;;;18.60;99.90;;;;;;5017144;28;20029;-74
2023/08/18 00:47:35;;;;;;;3.25;2.40;;;18.60;99.90;;;;;;5016425;28;20042;-74
2023/08/18 00:50:03;;;;;;;3.13;2.00;;;18.60;99.90;;;;;;5016195;28;20033;-74
2023/08/18 00:52:29;;;;;;;5.30;2.30;;;18.50;99.90;;;;;;5015710;28;20501;-74
2023/08/18 00:54:55;;;;;;;3.22;2.30;;;18.50;99.90;;;;;;5016267;28;20372;-74
2023/08/18 00:57:21;;;;;;;4.25;2.40;;;18.40;99.90;;;;;;5014638;28;20026;-74
2023/08/18 00:59:48;;;;;;;4.40;2.38;;;18.40;99.90;;;;;;5014621;28;20034;-74
2023/08/18 01:02:14;;;;;;;3.75;2.25;;;18.40;99.90;;;;;;5015627;28;20018;-74
2023/08/18 01:04:39;;;;;;;4.65;2.03;;;18.40;99.90;;;;;;5015395;28;20077;-74
2023/08/18 01:07:05;;;;;;;5.93;2.35;;;18.40;99.90;;;;;;5014131;28;20072;-74
2023/08/18 01:09:31;;;;;;;5.93;2.17;;;18.40;99.90;;;;;;5015406;28;20526;-74
2023/08/18 01:12:54;;;;;;;3.97;2.50;;;18.40;99.90;;;;;;5015322;28;20392;-74
2023/08/18 01:15:36;;;;;;;4.32;3.20;;;18.30;99.90;;;;;;4992999;28;20416;-74
2023/08/18 01:18:04;;;;;;;7.00;4.13;;;18.10;99.90;;;;;;5015327;28;20030;-73
2023/08/18 01:20:31;;;;;;;4.57;3.55;;;18.00;99.90;;;;;;5015258;28;20026;-73
2023/08/18 01:22:58;;;;;;;6.55;4.30;;;17.90;99.90;;;;;;5015169;28;20113;-72
2023/08/18 01:25:25;;;;;;;11.05;6.57;;;17.80;99.90;;;;;;5014132;28;20117;-72
2023/08/18 01:27:52;;;;;;;17.15;10.68;;;17.80;99.90;;;;;;5014318;28;20060;-72
2023/08/18 01:30:19;;;;;;;19.58;11.75;;;17.70;99.90;;;;;;5014894;28;20026;-72
2023/08/18 01:33:20;;;;;;;16.65;9.68;;;17.80;99.90;;;;;;5000468;28;20049;-72
2023/08/18 01:35:47;;;;;;;12.05;7.05;;;17.80;99.90;;;;;;5017793;28;20041;-72
2023/08/18 01:38:15;;;;;;;7.10;5.00;;;17.70;99.90;;;;;;5018365;28;20026;-72
2023/08/18 01:40:42;;;;;;;7.32;4.13;;;17.70;99.90;;;;;;5020005;28;20065;-73
2023/08/18 01:43:08;;;;;;;5.38;2.65;;;17.70;99.90;;;;;;5014982;28;20080;-73
2023/08/18 01:45:36;;;;;;;3.20;2.30;;;17.60;99.90;;;;;;5015336;28;20022;-73
2023/08/18 01:48:02;;;;;;;4.05;2.28;;;17.60;99.90;;;;;;5014954;28;20109;-73
2023/08/18 01:50:27;;;;;;;4.13;1.98;;;17.70;99.90;;;;;;5014721;28;20076;-73
2023/08/18 01:52:53;;;;;;;3.35;2.03;;;17.70;99.90;;;;;;5014429;28;20033;-74
2023/08/18 01:55:19;;;;;;;3.38;2.25;;;17.80;99.90;;;;;;5014962;28;20029;-73
2023/08/18 01:57:44;;;;;;;2.95;1.90;;;17.90;99.90;;;;;;5015185;28;20480;-73
2023/08/18 02:00:10;;;;;;;3.45;2.00;;;17.90;99.90;;;;;;5014606;28;20133;-73
2023/08/18 02:02:36;;;;;;;3.70;2.13;;;18.00;99.90;;;;;;5014602;28;20109;-73
2023/08/18 02:05:02;;;;;;;3.95;2.30;;;18.00;99.90;;;;;;5013384;28;20022;-73
2023/08/18 02:07:27;;;;;;;3.55;2.28;;;18.00;99.90;;;;;;5013353;28;20030;-73
2023/08/18 02:09:53;;;;;;;3.97;2.00;;;18.00;99.90;;;;;;5014270;28;20026;-74
2023/08/18 02:12:19;;;;;;;2.70;1.90;;;18.00;99.90;;;;;;5014322;28;20520;-73
2023/08/18 02:14:44;;;;;;;3.42;2.08;;;18.00;99.90;;;;;;5014586;28;20033;-73
2023/08/18 02:17:10;;;;;;;4.38;1.90;;;18.00;99.90;;;;;;5014390;28;20034;-73
2023/08/18 02:19:35;;;;;;;4.03;1.92;;;18.00;99.90;;;;;;5014085;28;20121;-73
2023/08/18 02:22:01;;;;;;;2.97;2.05;;;18.00;99.90;;;;;;5013121;28;20117;-73
2023/08/18 02:24:28;;;;;;;2.80;2.00;;;18.00;99.90;;;;;;5013959;28;20080;-73
2023/08/18 02:26:53;;;;;;;4.35;2.08;;;18.00;99.90;;;;;;5014129;28;20050;-73
2023/08/18 02:29:19;;;;;;;3.78;2.08;;;17.90;99.90;;;;;;5013954;28;20077;-74
2023/08/18 02:31:47;;;;;;;3.50;2.20;;;17.90;99.90;;;;;;5013139;28;20037;-73
2023/08/18 02:34:12;;;;;;;3.38;1.98;;;17.90;99.90;;;;;;5014356;28;20080;-74
2023/08/18 02:36:38;;;;;;;3.60;1.83;;;17.80;99.90;;;;;;5014167;28;20026;-73
2023/08/18 02:39:04;;;;;;;3.25;1.75;;;17.80;99.90;;;;;;5014212;28;20153;-73
2023/08/18 02:41:29;;;;;;;2.90;2.20;;;17.90;99.90;;;;;;5014583;28;20026;-74
2023/08/18 02:43:55;;;;;;;3.15;2.25;;;17.80;99.90;;;;;;4996378;28;20396;-74
2023/08/18 02:46:21;;;;;;;5.22;2.13;;;17.80;99.90;;;;;;5014713;28;20045;-74
2023/08/18 02:48:46;;;;;;;5.68;2.33;;;17.80;99.90;;;;;;5014280;28;20032;-74
2023/08/18 02:51:12;;;;;;;2.80;2.00;;;17.80;99.90;;;;;;5014292;28;20030;-74
2023/08/18 02:53:38;;;;;;;3.10;1.85;;;17.80;99.90;;;;;;5012673;28;20030;-74
2023/08/18 02:56:04;;;;;;;4.28;1.90;;;17.80;99.90;;;;;;5013778;28;20032;-73
2023/08/18 02:58:31;;;;;;;4.10;2.65;;;17.80;99.90;;;;;;5014045;28;20053;-74
2023/08/18 03:01:05;;;;;;;3.10;2.15;;;17.80;99.90;;;;;;5014185;28;20033;-74
2023/08/18 03:03:31;;;;;;;5.15;2.65;;;17.70;99.90;;;;;;5012623;28;20025;-74
2023/08/18 03:06:05;;;;;;;2.97;2.20;;;17.70;99.90;;;;;;5013942;28;20033;-73
2023/08/18 03:08:32;;;;;;;3.42;2.20;;;17.60;99.90;;;;;;5014216;28;20424;-74
2023/08/18 03:11:00;;;;;;;2.70;2.03;;;17.60;99.90;;;;;;5013857;28;20033;-74
2023/08/18 03:13:26;;;;;;;4.03;1.85;;;17.50;99.90;;;;;;5013962;28;20092;-73
2023/08/18 03:15:52;;;;;;;3.88;1.92;;;17.50;99.90;;;;;;5014131;28;20038;-74
2023/08/18 03:18:18;;;;;;;3.05;1.85;;;17.50;99.90;;;;;;5014224;28;20026;-74
2023/08/18 03:20:47;;;;;;;2.65;1.98;;;17.40;99.90;;;;;;5014821;28;20030;-74
2023/08/18 03:23:17;;;;;;;3.75;2.10;;;17.50;99.90;;;;;;5014456;28;20105;-74
2023/08/18 03:25:43;;;;;;;4.05;2.10;;;17.50;99.90;;;;;;5014749;28;20026;-74
2023/08/18 03:28:10;;;;;;;3.85;2.30;;;17.40;99.90;;;;;;5013571;28;20411;-74
2023/08/18 03:30:40;;;;;;;3.83;2.45;;;17.50;99.90;;;;;;5014658;28;20105;-74
2023/08/18 03:33:06;;;;;;;4.50;2.30;;;17.50;99.90;;;;;;5015135;28;20391;-74
2023/08/18 03:35:35;;;;;;;3.10;2.20;;;17.40;99.90;;;;;;5014622;28;20032;-74
2023/08/18 03:38:04;;;;;;;3.95;2.72;;;17.40;99.90;;;;;;5014454;28;20028;-73
2023/08/18 03:40:30;;;;;;;3.13;2.15;;;17.40;99.90;;;;;;5014262;28;20388;-73
2023/08/18 03:42:55;;;;;;;4.55;2.70;;;17.30;99.90;;;;;;5015150;28;20030;-74
2023/08/18 03:45:21;;;;;;;3.65;2.22;;;17.20;99.90;;;;;;5014125;28;20030;-74
2023/08/18 03:47:47;;;;;;;3.83;2.30;;;17.20;99.90;;;;;;5014427;28;20041;-73
2023/08/18 03:50:13;;;;;;;4.10;2.40;;;17.20;99.90;;;;;;5014527;28;20160;-74
2023/08/18 03:52:39;;;;;;;3.30;2.08;;;17.20;99.90;;;;;;5013731;28;20034;-74
2023/08/18 03:55:05;;;;;;;3.90;1.90;;;17.20;99.90;;;;;;5013895;28;20039;-74
2023/08/18 03:57:30;;;;;;;3.50;2.17;;;17.30;99.90;;;;;;5014545;28;20022;-73
2023/08/18 03:59:56;;;;;;;3.63;2.13;;;17.30;99.90;;;;;;5011926;28;20112;-74
2023/08/18 04:02:22;;;;;;;2.80;1.77;;;17.40;99.90;;;;;;5013823;28;20384;-74
2023/08/18 04:04:48;;;;;;;2.92;2.00;;;17.40;99.90;;;;;;5013662;28;20026;-74
2023/08/18 04:07:14;;;;;;;7.85;2.15;;;17.40;99.90;;;;;;5014236;28;20022;-73
2023/08/18 04:09:40;;;;;;;3.15;1.90;;;17.50;99.90;;;;;;5015731;28;20026;-74
2023/08/18 04:12:06;;;;;;;4.10;1.98;;;17.50;99.90;;;;;;5017291;28;20022;-74
2023/08/18 04:14:31;;;;;;;2.40;1.80;;;17.50;99.90;;;;;;5017040;28;20052;-74
2023/08/18 04:16:57;;;;;;;2.08;1.55;;;17.40;99.90;;;;;;5018653;28;20548;-74
2023/08/18 04:19:23;;;;;;;2.88;1.88;;;17.40;99.90;;;;;;5018755;28;20539;-74
2023/08/18 04:21:48;;;;;;;2.97;1.88;;;17.40;99.90;;;;;;5017645;28;20042;-74
2023/08/18 04:24:14;;;;;;;2.70;1.90;;;17.30;99.90;;;;;;5017576;28;20030;-74
2023/08/18 04:26:47;;;;;;;2.90;2.00;;;17.30;99.90;;;;;;5017759;28;20026;-74
2023/08/18 04:29:12;;;;;;;3.97;2.03;;;17.30;99.90;;;;;;5017500;28;20036;-73
2023/08/18 04:31:38;;;;;;;3.50;2.22;;;17.30;99.90;;;;;;5016419;28;20034;-74
2023/08/18 04:34:04;;;;;;;3.40;2.40;;;17.30;99.90;;;;;;5016510;28;20030;-74
2023/08/18 04:36:30;;;;;;;2.80;2.05;;;17.30;99.90;;;;;;5016057;28;20025;-74
2023/08/18 04:38:56;;;;;;;3.28;1.90;;;17.30;99.90;;;;;;5016024;28;20018;-74
2023/08/18 04:41:22;;;;;;;3.00;1.90;;;17.30;99.90;;;;;;5015936;28;20057;-74
2023/08/18 04:43:50;;;;;;;4.13;2.40;;;17.20;99.90;;;;;;5016058;28;20103;-74
2023/08/18 04:46:16;;;;;;;4.60;2.28;;;17.20;99.90;;;;;;5014526;28;20034;-74
2023/08/18 04:48:42;;;;;;;4.10;2.72;;;17.20;99.90;;;;;;5015746;28;20021;-74
2023/08/18 04:51:07;;;;;;;5.15;2.90;;;17.30;99.90;;;;;;5014960;28;20435;-74
2023/08/18 04:53:33;;;;;;;4.43;2.50;;;17.30;99.90;;;;;;5016072;28;20030;-74
2023/08/18 04:56:02;;;;;;;3.65;2.70;;;17.30;99.90;;;;;;5016154;28;20065;-74
2023/08/18 04:58:29;;;;;;;3.80;2.58;;;17.30;99.90;;;;;;5016148;28;20388;-72
2023/08/18 05:00:54;;;;;;;4.35;2.35;;;17.30;99.90;;;;;;5015450;28;20117;-73
2023/08/18 05:03:20;;;;;;;3.63;2.58;;;17.30;99.90;;;;;;5015698;28;20037;-72
2023/08/18 05:05:57;;;;;;;2.85;2.08;;;17.30;99.90;;;;;;5015703;28;20480;-73
2023/08/18 05:08:22;;;;;;;4.28;2.55;;;17.30;99.90;;;;;;5015455;28;20072;-73
2023/08/18 05:10:48;;;;;;;3.83;2.63;;;17.40;99.90;;;;;;5015216;28;20030;-73
2023/08/18 05:13:13;;;;;;;3.50;2.03;;;17.40;99.90;;;;;;5013908;28;20033;-73
2023/08/18 05:15:39;;;;;;;5.28;2.78;;;17.50;99.90;;;;;;5014262;28;20030;-73
2023/08/18 05:18:05;;;;;;;3.88;1.90;;;17.50;99.90;;;;;;5014963;28;20025;-73
2023/08/18 05:20:30;;;;;;;2.97;2.33;;;17.50;99.90;;;;;;5015215;28;20026;-73
2023/08/18 05:22:56;;;;;;;4.28;2.22;;;17.50;99.90;;;;;;5015246;28;20056;-73
2023/08/18 05:25:22;;;;;;;4.63;2.50;;;17.60;99.90;;;;;;5015180;28;20161;-73
2023/08/18 05:27:48;;;;;;;4.35;2.28;;;17.60;99.90;;;;;;5015375;28;20163;-72
2023/08/18 05:30:13;;;;;;;4.40;2.13;;;17.70;99.90;;;;;;5013695;28;20026;-73
2023/08/18 05:32:39;;;;;;;3.78;2.03;;;17.70;99.90;;;;;;5014826;28;20030;-73
2023/08/18 05:35:05;;;;;;;3.47;2.00;;;17.70;99.90;;;;;;5014928;28;20108;-73
2023/08/18 05:37:31;;;;;;;2.92;1.90;;;17.70;99.90;;;;;;5014926;28;20030;-73
2023/08/18 05:39:57;;;;;;;3.78;2.55;;;17.70;99.90;;;;;;5013453;28;20037;-74
2023/08/18 05:42:22;;;;;;;3.10;2.10;;;17.70;99.90;;;;;;5013515;28;20030;-73
2023/08/18 05:44:48;;;;;;;3.33;2.10;;;17.70;99.90;;;;;;5014708;28;20218;-74
2023/08/18 05:47:14;;;;;;;5.40;2.75;;;17.70;99.90;;;;;;4997043;28;20022;-73
2023/08/18 05:49:40;;;;;;;4.15;2.45;;;17.70;99.90;;;;;;5014627;28;20056;-73
2023/08/18 05:52:05;;;;;;;4.43;2.55;;;17.70;99.90;;;;;;5014632;28;20421;-73
2023/08/18 05:54:31;;;;;;;4.00;2.70;;;17.70;99.90;;;;;;5014599;28;20113;-72
2023/08/18 05:56:57;;;;;;;3.30;2.30;;;17.70;99.90;;;;;;5014689;28;20053;-73
2023/08/18 05:59:22;;;;;;;4.85;2.00;;;17.80;99.90;;;;;;5014396;28;20439;-73
2023/08/18 06:01:50;;;;;;;5.75;2.30;;;17.90;99.90;;;;;;5014492;28;20026;-72
2023/08/18 06:04:15;;;;;;;4.13;2.00;;;17.90;99.90;;;;;;5014421;28;20037;-73
2023/08/18 06:06:41;;;;;;;3.80;2.60;;;18.00;99.90;;;;;;5014760;28;20030;-73
2023/08/18 06:09:07;;;;;;;3.00;2.15;;;18.00;99.90;;;;;;5014269;28;20048;-72
2023/08/18 06:11:32;;;;;;;2.53;1.80;;;18.00;99.90;;;;;;5014359;28;20029;-73
2023/08/18 06:13:59;;;;;;;3.35;1.77;;;18.10;99.90;;;;;;5014785;28;20032;-73
2023/08/18 06:16:25;;;;;;;2.53;1.67;;;18.20;99.90;;;;;;5014273;28;20022;-73
2023/08/18 06:18:50;;;;;;;3.30;2.05;;;18.20;99.90;;;;;;5014291;28;20464;-73
2023/08/18 06:21:16;;;;;;;2.95;1.85;;;18.20;99.90;;;;;;5014167;28;20022;-73
2023/08/18 06:23:42;;;;;;;2.60;1.77;;;18.20;99.90;;;;;;5014170;28;20036;-73
2023/08/18 06:26:07;;;;;;;2.95;1.75;;;18.30;99.90;;;;;;5014098;28;20370;-73
2023/08/18 06:28:33;;;;;;;3.22;1.90;;;18.40;99.90;;;;;;5014429;28;20531;-73
2023/08/18 06:31:06;;;;;;;3.90;1.80;;;18.40;99.90;;;;;;5013375;28;20447;-73
2023/08/18 06:33:33;;;;;;;2.70;2.08;;;18.50;99.90;;;;;;5012590;28;20496;-73
2023/08/18 06:35:59;;;;;;;2.92;1.50;;;18.50;99.90;;;;;;5014176;28;20029;-73
2023/08/18 06:38:24;;;;;;;3.15;2.08;;;18.50;99.90;;;;;;5013891;28;20076;-73
2023/08/18 06:40:50;;;;;;;2.97;1.73;;;18.60;99.90;;;;;;5014239;28;20030;-73
2023/08/18 06:43:16;;;;;;;3.65;1.92;;;18.60;99.90;;;;;;5012681;28;20030;-73
2023/08/18 06:45:42;;;;;;;3.45;2.03;;;18.70;99.90;;;;;;5013927;28;20112;-74
2023/08/18 06:48:08;;;;;;;2.58;1.70;;;18.70;99.90;;;;;;5013801;28;20111;-74
2023/08/18 06:50:33;;;;;;;2.85;1.95;;;18.80;99.90;;;;;;5013631;28;20053;-74
2023/08/18 06:52:59;;;;;;;2.92;2.00;;;18.80;99.90;;;;;;5012890;28;20746;-74
2023/08/18 06:55:25;;;;;;;3.00;1.80;;;18.90;99.90;;;;;;5013873;28;20030;-74
2023/08/18 06:57:51;;;;;;;3.35;2.17;;;18.90;99.90;;;;;;5013720;28;20112;-74
2023/08/18 07:00:18;;;;;;;3.42;2.00;;;18.90;99.90;;;;;;5014056;28;20535;-74
2023/08/18 07:02:44;;;;;;;2.60;1.88;;;19.00;99.90;;;;;;5013575;28;20592;-73
2023/08/18 07:05:12;;;;;;;3.35;2.03;;;19.10;99.90;;;;;;5012730;28;20058;-74
2023/08/18 07:07:38;;;;;;;2.97;2.10;;;19.10;99.90;;;;;;5013632;28;20026;-74
2023/08/18 07:10:05;;;;;;;3.88;2.00;;;19.20;99.90;;;;;;5013614;28;20034;-74
2023/08/18 07:12:32;;;;;;;3.10;2.00;;;19.20;99.90;;;;;;5013473;28;20029;-74
2023/08/18 07:14:58;;;;;;;4.28;2.20;;;19.30;99.90;;;;;;5012231;28;20030;-74
2023/08/18 07:17:24;;;;;;;3.40;2.33;;;19.40;99.90;;;;;;5013584;28;20045;-74
2023/08/18 07:19:49;;;;;;;2.88;2.33;;;19.40;99.90;;;;;;5013281;28;20566;-74
2023/08/18 07:22:15;;;;;;;4.28;2.40;;;19.50;99.90;;;;;;5013693;28;20026;-73
2023/08/18 07:24:41;;;;;;;3.20;2.25;;;19.50;99.90;;;;;;5013380;28;20030;-74
2023/08/18 07:27:07;;;;;;;3.08;2.20;;;19.50;99.90;;;;;;5013403;28;20392;-74
2023/08/18 07:29:33;;;;;;;3.55;2.33;;;19.60;99.90;;;;;;5013197;28;20109;-74
2023/08/18 07:32:00;;;;;;;3.88;2.30;;;19.60;99.90;;;;;;5012030;28;20089;-74
2023/08/18 07:34:26;;;;;;;2.72;1.80;;;19.60;99.90;;;;;;5013209;28;20030;-74
2023/08/18 07:36:51;;;;;;;3.65;2.08;;;19.70;99.90;;;;;;5012707;28;20075;-73
2023/08/18 07:39:18;;;;;;;3.38;2.30;;;19.70;99.90;;;;;;5015297;28;20022;-74
2023/08/18 07:41:44;;;;;;;4.68;1.85;;;19.80;99.90;;;;;;5016378;28;20026;-74
2023/08/18 07:44:11;;;;;;;3.17;2.10;;;19.80;99.90;;;;;;5018476;28;20042;-74
2023/08/18 07:46:37;;;;;;;2.50;1.85;;;19.90;99.90;;;;;;5017703;28;20034;-74
2023/08/18 07:49:03;;;;;;;3.00;2.05;;;20.00;99.90;;;;;;5017866;28;20539;-74
2023/08/18 07:51:30;;;;;;;2.95;2.05;;;20.10;99.90;;;;;;5017751;28;20038;-74
2023/08/18 07:53:56;;;;;;;3.83;2.08;;;20.20;99.90;;;;;;5017175;28;20034;-74
2023/08/18 07:56:22;;;;;;;3.55;1.98;;;20.30;99.90;;;;;;5016188;28;20543;-74
2023/08/18 07:58:48;;;;;;;4.57;2.65;;;20.40;99.90;;;;;;5015673;28;20029;-74
2023/08/18 08:01:14;;;;;;;3.08;2.08;;;20.50;99.90;;;;;;5016732;28;20029;-74
2023/08/18 08:03:40;;;;;;;3.28;2.10;;;20.50;99.90;;;;;;5016971;28;20392;-74
2023/08/18 08:06:05;;;;;;;3.35;2.47;;;20.60;99.90;;;;;;5016632;28;20022;-74
2023/08/18 08:08:31;;;;;;;3.72;2.00;;;20.70;99.90;;;;;;5016641;28;20112;-73
2023/08/18 08:10:57;;;;;;;3.72;2.08;;;20.90;99.90;;;;;;5016543;28;20037;-74
2023/08/18 08:13:23;;;;;;;4.43;1.80;;;21.00;99.90;;;;;;5015115;28;20034;-74
2023/08/18 08:15:49;;;;;;;3.40;2.03;;;21.10;99.90;;;;;;5016416;28;20160;-74
2023/08/18 08:18:17;;;;;;;4.10;2.08;;;21.10;99.90;;;;;;5016265;28;20108;-74
2023/08/18 08:20:43;;;;;;;5.32;2.40;;;21.20;99.90;;;;;;5016773;28;20018;-74
2023/08/18 08:23:08;;;;;;;3.05;1.80;;;21.30;99.90;;;;;;5016628;28;20022;-74
2023/08/18 08:25:34;;;;;;;3.58;2.13;;;21.30;99.90;;;;;;5015020;28;20404;-74
2023/08/18 08:28:02;;;;;;;2.63;1.88;;;21.50;99.90;;;;;;5016564;28;20481;-74
2023/08/18 08:30:28;;;;;;;6.50;2.28;;;21.60;99.90;;;;;;5016001;28;20053;-74
2023/08/18 08:32:54;;;;;;;2.40;1.88;;;21.70;99.90;;;;;;5015955;28;20026;-74
2023/08/18 08:35:20;;;;;;;2.55;1.85;;;21.70;99.90;;;;;;5016089;28;20026;-74
2023/08/18 08:37:46;;;;;;;4.03;2.10;;;21.80;99.90;;;;;;5016080;28;20022;-74
2023/08/18 08:40:20;;;;;;;2.90;2.00;;;21.90;99.90;;;;;;5015843;28;20378;-74
2023/08/18 08:42:48;;;;;;;4.20;2.15;;;22.00;99.90;;;;;;5016068;28;20030;-74
2023/08/18 08:45:14;;;;;;;4.22;2.30;;;22.00;99.90;;;;;;5015797;28;20018;-74
2023/08/18 08:47:42;;;;;;;3.70;1.83;;;22.10;99.90;;;;;;5014494;28;20037;-74
2023/08/18 08:50:08;;;;;;;4.20;2.38;;;22.20;99.90;;;;;;5015796;28;20480;-74
2023/08/18 08:52:39;;;;;;;4.82;1.98;;;22.40;99.90;;;;;;5015344;28;20052;-74
2023/08/18 08:55:05;;;;;;;3.70;2.13;;;22.40;99.90;;;;;;5015825;28;20014;-74
2023/08/18 08:57:31;;;;;;;2.83;1.90;;;22.50;99.90;;;;;;5016385;28;20060;-74
2023/08/18 08:59:58;;;;;;;2.58;1.80;;;22.60;99.90;;;;;;5015821;28;20525;-74
2023/08/18 09:02:24;;;;;;;2.72;1.83;;;22.70;99.90;;;;;;5015526;28;20384;-74
2023/08/18 09:04:50;;;;;;;2.40;1.70;;;22.80;99.90;;;;;;5015888;28;20026;-75
2023/08/18 09:07:15;;;;;;;4.32;2.47;;;22.90;99.90;;;;;;5015795;28;20180;-74
2023/08/18 09:09:42;;;;;;;3.30;2.40;;;23.00;99.90;;;;;;5014997;28;20029;-74
2023/08/18 09:12:08;;;;;;;4.55;3.00;;;23.00;99.90;;;;;;5015474;28;20026;-74
2023/08/18 09:14:41;;;;;;;5.40;3.25;;;23.00;99.90;;;;;;5015262;28;20030;-74
2023/08/18 09:17:07;;;;;;;4.38;3.30;;;23.10;99.90;;;;;;5015568;28;20464;-74
2023/08/18 09:19:33;;;;;;;3.90;3.10;;;23.10;99.90;;;;;;5015225;28;20045;-74
2023/08/18 09:22:02;;;;;;;5.22;2.50;;;23.20;99.90;;;;;;5015377;28;20030;-74
2023/08/18 09:24:30;;;;;;;4.22;2.40;;;23.20;99.90;;;;;;5015427;28;20037;-74
2023/08/18 09:27:07;;;;;;;3.45;2.20;;;23.30;99.90;;;;;;5013886;28;20042;-74
2023/08/18 09:29:33;;;;;;;3.47;2.03;;;23.40;99.90;;;;;;5014133;28;20030;-74
2023/08/18 09:31:59;;;;;;;4.35;2.17;;;23.50;99.90;;;;;;5015113;28;20034;-74
2023/08/18 09:34:25;;;;;;;3.25;2.15;;;23.60;99.90;;;;;;5014899;28;20084;-74
2023/08/18 09:36:59;;;;;;;3.25;2.00;;;23.80;99.90;;;;;;5015196;28;20076;-74
2023/08/18 09:39:25;;;;;;;2.80;2.10;;;23.90;99.90;;;;;;5014942;28;20065;-74
2023/08/18 09:41:52;;;;;;;3.75;2.10;;;24.00;99.90;;;;;;5013434;28;20057;-74
2023/08/18 09:44:20;;;;;;;3.88;2.47;;;24.00;99.90;;;;;;5003575;28;20037;-74
2023/08/18 09:46:50;;;;;;;5.15;2.65;;;24.10;99.90;;;;;;4993878;28;20027;-74
2023/08/18 09:49:20;;;;;;;2.97;2.47;;;24.20;99.90;;;;;;5012967;28;20029;-74
2023/08/18 09:51:50;;;;;;;3.42;2.20;;;24.10;99.90;;;;;;5014684;28;20065;-74
2023/08/18 09:54:18;;;;;;;4.43;2.60;;;24.10;99.90;;;;;;5013395;28;20065;-74
2023/08/18 09:56:48;;;;;;;3.25;2.17;;;24.20;99.90;;;;;;5014516;28;20513;-74
2023/08/18 09:59:42;;;;;;;3.22;2.65;;;24.30;99.90;;;;;;5023597;28;20026;-74
2023/08/18 10:02:12;;;;;;;3.58;2.53;;;24.30;99.90;;;;;;5008657;28;20030;-74
2023/08/18 10:04:41;;;;;;;3.42;2.15;;;24.40;99.90;;;;;;5013316;28;20117;-74
2023/08/18 10:07:08;;;;;;;3.28;2.50;;;24.50;99.90;;;;;;5014228;28;20042;-74
2023/08/18 10:09:34;;;;;;;2.85;2.00;;;24.60;99.90;;;;;;5013048;28;20041;-74
2023/08/18 10:12:01;;;;;;;3.80;2.22;;;24.60;99.90;;;;;;5011440;28;20113;-74
2023/08/18 10:14:28;;;;;;;2.83;2.33;;;24.70;99.90;;;;;;5014071;28;20037;-74
2023/08/18 10:16:55;;;;;;;4.75;2.10;;;24.80;99.90;;;;;;5014001;28;20026;-74
2023/08/18 10:19:46;;;;;;;3.42;2.10;;;24.90;99.90;;;;;;5012730;28;20057;-74
2023/08/18 10:22:12;;;;;;;3.45;2.20;;;25.10;99.90;;;;;;5014052;28;20073;-74
2023/08/18 10:24:39;;;;;;;3.60;2.30;;;25.20;99.90;;;;;;5014196;28;20053;-73
2023/08/18 10:27:07;;;;;;;3.33;2.33;;;25.20;99.90;;;;;;5014064;28;20040;-74
2023/08/18 10:29:35;;;;;;;3.22;1.90;;;25.30;99.90;;;;;;5013910;28;20500;-74
2023/08/18 10:32:08;;;;;;;2.70;1.80;;;25.30;99.90;;;;;;5014074;28;20053;-74
2023/08/18 10:34:35;;;;;;;1.92;1.60;;;25.40;99.90;;;;;;5014481;28;20037;-74
2023/08/18 10:37:03;;;;;;;2.65;1.83;;;25.50;99.90;;;;;;5014040;28;20025;-74
2023/08/18 10:39:36;;;;;;;2.45;1.80;;;25.70;99.90;;;;;;5013860;28;20052;-74
2023/08/18 10:42:10;;;;;;;3.40;2.22;;;25.70;99.90;;;;;;5013842;28;20026;-74
2023/08/18 10:44:36;;;;;;;4.28;1.70;;;25.80;99.90;;;;;;5014112;28;20518;-74
2023/08/18 10:47:03;;;;;;;2.15;1.70;;;25.90;99.90;;;;;;5014141;28;20034;-74
2023/08/18 10:49:30;;;;;;;2.58;1.50;;;25.90;99.90;;;;;;5013666;28;20034;-74
2023/08/18 10:51:55;;;;;;;2.83;1.90;;;25.90;99.90;;;;;;5014924;28;20030;-74
2023/08/18 10:54:24;;;;;;;2.80;2.00;;;26.00;99.90;;;;;;5012327;28;20037;-74
2023/08/18 10:56:50;;;;;;;2.00;1.60;;;26.00;99.90;;;;;;5012389;28;20030;-74
2023/08/18 10:59:18;;;;;;;2.15;1.50;;;26.10;99.90;;;;;;5013811;28;20018;-74
2023/08/18 11:01:44;;;;;;;2.50;1.42;;;26.30;99.90;;;;;;5015300;28;20105;-74
2023/08/18 11:04:09;;;;;;;2.28;1.52;;;26.40;99.90;;;;;;5013962;28;20117;-74
2023/08/18 11:06:35;;;;;;;2.60;1.58;;;26.60;99.90;;;;;;5014353;28;20036;-74
2023/08/18 11:09:04;;;;;;;2.35;1.50;;;26.70;99.90;;;;;;5013933;28;20034;-74
2023/08/18 11:11:29;;;;;;;2.20;1.50;;;26.90;99.20;;;;;;5012242;28;20030;-74
2023/08/18 11:13:55;;;;;;;1.90;1.27;;;27.00;98.40;;;;;;5013398;28;20030;-74
2023/08/18 11:16:23;;;;;;;1.90;1.50;;;27.10;97.20;;;;;;5014801;28;20080;-74
2023/08/18 11:18:51;;;;;;;2.40;1.60;;;27.10;97.00;;;;;;5017439;28;20034;-74
2023/08/18 11:21:17;;;;;;;2.28;1.50;;;27.30;96.40;;;;;;5016315;28;20034;-74
2023/08/18 11:23:43;;;;;;;1.90;1.30;;;27.30;95.60;;;;;;5017445;28;20377;-74
2023/08/18 11:26:09;;;;;;;2.20;1.35;;;27.40;94.80;;;;;;5012342;28;20057;-74
2023/08/18 11:28:35;;;;;;;2.17;1.38;;;27.40;94.70;;;;;;5008538;28;20396;-74
2023/08/18 11:31:05;;;;;;;2.13;1.48;;;27.50;94.50;;;;;;5017390;28;20034;-74
2023/08/18 11:33:31;;;;;;;;;;;27.60;93.80;;;;;;5016785;28;20030;-74
2023/08/18 11:35:56;;;;;;;;;;;27.80;93.70;;;;;;5015976;28;19909;-74
2023/08/18 11:38:22;;;;;;;;;;;27.80;93.20;;;;;;5017533;28;19909;-75
2023/08/18 11:40:48;;;;;;;;;;;27.90;92.40;;;;;;5017480;28;20363;-74
2023/08/18 11:43:14;;;;;;;;;;;28.00;92.80;;;;;;5017527;28;19910;-74
2023/08/18 11:45:40;;;;;;;;;;;28.10;93.70;;;;;;5017739;28;20415;-74
2023/08/18 11:48:06;;;;;;;;;;;28.20;93.70;;;;;;5017361;28;19949;-74
2023/08/18 11:50:32;;;;;;;;;;;28.30;93.90;;;;;;5017700;28;19909;-74
2023/08/18 11:52:58;;;;;;;;;;;28.40;92.20;;;;;;5017497;28;19917;-74
2023/08/18 11:55:34;;;;;;;;;;;28.40;92.00;;;;;;5017892;28;19912;-74
2023/08/18 11:58:04;;;;;;;;;;;28.60;92.50;;;;;;5017167;28;19909;-74
2023/08/18 12:00:31;;;;;;;;;;;28.70;91.80;;;;;;5015891;28;19905;-75
2023/08/18 12:02:56;;;;;;;;;;;28.70;91.80;;;;;;5017627;28;19912;-74
2023/08/18 12:05:23;;;;;;;;;;;28.60;91.40;;;;;;5017031;28;19992;-74
2023/08/18 12:07:52;;;;;;;;;;;28.50;91.00;;;;;;5017185;28;19988;-74
2023/08/18 12:10:21;;;;;;;;;;;28.40;90.90;;;;;;5017174;28;19905;-74
2023/08/18 12:12:50;;;;;;;;;;;28.30;90.30;;;;;;5016847;28;19905;-74
2023/08/18 12:15:16;;;;;;;;;;;28.20;90.50;;;;;;5016852;28;20364;-74
2023/08/18 12:17:41;;;;;;;;;;;28.20;90.50;;;;;;5016637;28;19962;-74
2023/08/18 12:20:07;;;;;;;;;;;28.00;91.00;;;;;;5016115;28;19913;-74
2023/08/18 12:22:33;;;;;;;;;;;27.90;90.60;;;;;;5017103;28;19917;-74
2023/08/18 12:24:58;;;;;;;;;;;27.90;90.60;;;;;;5016565;28;19913;-74
2023/08/18 12:27:26;;;;;;;;;;;28.00;91.20;;;;;;5016031;28;19909;-74
2023/08/18 12:29:52;;;;;;;;;;;28.10;90.90;;;;;;5016238;28;20390;-73
2023/08/18 12:32:17;;;;;;;;;;;28.10;90.70;;;;;;5016418;28;19905;-74
2023/08/18 12:34:43;;;;;;;;;;;28.20;90.50;;;;;;5016402;28;19913;-73
2023/08/18 12:37:09;;;;;;;;;;;28.20;90.20;;;;;;4998935;28;20311;-74
2023/08/18 12:39:34;;;;;;;;;;;28.40;90.40;;;;;;5015334;28;19913;-73
2023/08/18 12:42:00;;;;;;;;;;;28.70;90.40;;;;;;5016375;28;19981;-74
2023/08/18 12:44:25;;;;;;;;;;;28.90;90.60;;;;;;5016586;28;19906;-74
2023/08/18 12:46:51;;;;;;;;;;;29.10;90.50;;;;;;5015053;28;19939;-73
2023/08/18 12:49:16;;;;;;;;;;;29.30;90.20;;;;;;5014911;28;19916;-74
2023/08/18 12:51:42;;;;;;;;;;;29.40;89.90;;;;;;5016183;28;19917;-74
2023/08/18 12:54:07;;;;;;;;;;;29.50;86.20;;;;;;5014848;28;19913;-74